Time;durP1;ratioP1;P1;durP2;ratioP2;P2;SDS_P1;SDS_P2;PMS_P1;PMS_P2;Temp;Humidity;BMP_temperature;BMP_pressure;BME280_temperature;BME280_humidity;BME280_pressure;Samples;Min_cycle;Max_cycle;Signal;HPM_P1;HPM_P2
2021/05/12 00:01:08;;;;;;;1.30;1.25;;;;;;;;;;5110484;28;20207;-40
2021/05/12 00:03:34;;;;;;;1.88;1.77;;;;;;;;;;5094962;28;20264;-40
2021/05/12 00:06:00;;;;;;;3.45;1.35;;;;;;;;;;5094728;28;20253;-41
2021/05/12 00:08:26;;;;;;;1.50;1.40;;;;;;;;;;5094752;28;20252;-41
2021/05/12 00:10:52;;;;;;;1.38;1.30;;;;;;;;;;5112876;28;20255;-41
2021/05/12 00:13:18;;;;;;;2.13;1.50;;;;;;;;;;5114908;28;20165;-40
2021/05/12 00:15:44;;;;;;;1.70;1.60;;;;;;;;;;5114540;28;20174;-40
2021/05/12 00:18:19;;;;;;;1.90;1.80;;;;;;;;;;5078792;28;20196;-41
2021/05/12 00:20:45;;;;;;;1.90;1.80;;;;;;;;;;5113596;28;20597;-41
2021/05/12 00:23:15;;;;;;;1.42;1.33;;;;;;;;;;5114365;28;20548;-41
2021/05/12 00:25:41;;;;;;;2.08;1.90;;;;;;;;;;5114623;28;20172;-41
2021/05/12 00:28:07;;;;;;;2.03;1.92;;;;;;;;;;5096602;28;20170;-41
2021/05/12 00:30:33;;;;;;;1.80;1.50;;;;;;;;;;5113539;28;20259;-41
2021/05/12 00:33:00;;;;;;;1.80;1.70;;;;;;;;;;5114662;28;20240;-41
2021/05/12 00:35:26;;;;;;;1.50;1.40;;;;;;;;;;5114563;28;20177;-41
2021/05/12 00:37:52;;;;;;;1.70;1.60;;;;;;;;;;5114080;28;20477;-40
2021/05/12 00:40:18;;;;;;;1.63;1.52;;;;;;;;;;5109092;28;20288;-41
2021/05/12 00:42:45;;;;;;;1.60;1.50;;;;;;;;;;5096018;28;20288;-40
2021/05/12 00:45:12;;;;;;;2.00;1.80;;;;;;;;;;5111522;28;20210;-40
2021/05/12 00:47:38;;;;;;;1.50;1.40;;;;;;;;;;5115742;28;20185;-41
2021/05/12 00:50:05;;;;;;;1.52;1.42;;;;;;;;;;5100769;28;20170;-41
2021/05/12 00:52:31;;;;;;;1.40;1.30;;;;;;;;;;5117342;28;20540;-40
2021/05/12 00:54:57;;;;;;;1.60;1.50;;;;;;;;;;5118229;28;20315;-40
2021/05/12 00:57:23;;;;;;;1.60;1.50;;;;;;;;;;5117492;28;20177;-40
2021/05/12 00:59:55;;;;;;;2.58;1.70;;;;;;;;;;5113667;28;20200;-40
2021/05/12 01:02:21;;;;;;;1.73;1.58;;;;;;;;;;5117788;28;20185;-41
2021/05/12 01:04:47;;;;;;;1.50;1.40;;;;;;;;;;5117667;28;20174;-40
2021/05/12 01:07:13;;;;;;;3.10;2.00;;;;;;;;;;5117801;28;20177;-40
2021/05/12 01:09:39;;;;;;;1.52;1.48;;;;;;;;;;5117350;28;20181;-40
2021/05/12 01:12:06;;;;;;;1.65;1.55;;;;;;;;;;5113592;28;20176;-41
2021/05/12 01:14:32;;;;;;;1.88;1.30;;;;;;;;;;5117811;28;20184;-41
2021/05/12 01:16:58;;;;;;;1.70;1.60;;;;;;;;;;5117816;28;20186;-40
2021/05/12 01:19:26;;;;;;;2.75;1.70;;;;;;;;;;5117203;28;20579;-41
2021/05/12 01:21:52;;;;;;;1.70;1.60;;;;;;;;;;5117213;28;20264;-40
2021/05/12 01:24:19;;;;;;;2.90;1.90;;;;;;;;;;5116495;28;20295;-40
2021/05/12 01:26:45;;;;;;;1.67;1.40;;;;;;;;;;5117317;28;20204;-40
2021/05/12 01:29:11;;;;;;;1.98;1.77;;;;;;;;;;5117200;28;20629;-40
2021/05/12 01:31:39;;;;;;;1.80;1.70;;;;;;;;;;5117011;28;20208;-40
2021/05/12 01:34:06;;;;;;;1.80;1.70;;;;;;;;;;5117380;28;20169;-41
2021/05/12 01:36:33;;;;;;;2.15;1.42;;;;;;;;;;5117424;28;20181;-41
2021/05/12 01:38:59;;;;;;;1.50;1.38;;;;;;;;;;5101370;28;20250;-41
2021/05/12 01:41:26;;;;;;;1.27;1.17;;;;;;;;;;5116032;28;20177;-41
2021/05/12 01:43:52;;;;;;;1.33;1.00;;;;;;;;;;5116964;28;20226;-41
2021/05/12 01:46:19;;;;;;;0.90;0.90;;;;;;;;;;5117545;28;20161;-40
2021/05/12 01:48:45;;;;;;;0.90;0.90;;;;;;;;;;5117477;28;20413;-41
2021/05/12 01:51:12;;;;;;;0.80;0.80;;;;;;;;;;5116599;28;20340;-40
2021/05/12 01:53:38;;;;;;;0.80;0.80;;;;;;;;;;5114205;28;20177;-40
2021/05/12 01:56:04;;;;;;;0.82;0.82;;;;;;;;;;5116399;28;20425;-41
2021/05/12 01:58:31;;;;;;;0.90;0.90;;;;;;;;;;5116765;28;20197;-40
2021/05/12 02:00:57;;;;;;;0.80;0.80;;;;;;;;;;5115705;28;20595;-41
2021/05/12 02:03:23;;;;;;;0.95;0.95;;;;;;;;;;5100365;28;20545;-40
2021/05/12 02:05:50;;;;;;;1.08;0.95;;;;;;;;;;5096594;28;20197;-40
2021/05/12 02:08:17;;;;;;;0.82;0.82;;;;;;;;;;5112224;28;20193;-41
2021/05/12 02:10:44;;;;;;;0.70;0.70;;;;;;;;;;5115601;28;20277;-41
2021/05/12 02:13:11;;;;;;;0.77;0.77;;;;;;;;;;5115658;28;20310;-40
2021/05/12 02:15:37;;;;;;;1.00;0.90;;;;;;;;;;5116610;28;20234;-40
2021/05/12 02:18:04;;;;;;;0.80;0.80;;;;;;;;;;5116695;28;20173;-41
2021/05/12 02:20:31;;;;;;;0.90;0.90;;;;;;;;;;5115044;28;20220;-40
2021/05/12 02:22:57;;;;;;;0.70;0.70;;;;;;;;;;5115471;28;20183;-41
2021/05/12 02:25:24;;;;;;;0.95;0.70;;;;;;;;;;5116299;28;20169;-40
2021/05/12 02:27:50;;;;;;;0.70;0.70;;;;;;;;;;5116515;28;20169;-40
2021/05/12 02:30:16;;;;;;;0.60;0.60;;;;;;;;;;5116675;28;20181;-40
2021/05/12 02:32:43;;;;;;;0.77;0.77;;;;;;;;;;5108053;28;20257;-40
2021/05/12 02:35:09;;;;;;;0.52;0.52;;;;;;;;;;5116126;28;20173;-40
2021/05/12 02:37:36;;;;;;;0.70;0.70;;;;;;;;;;5115923;28;20177;-40
2021/05/12 02:40:02;;;;;;;0.60;0.60;;;;;;;;;;5115117;28;20270;-40
2021/05/12 02:42:28;;;;;;;0.65;0.65;;;;;;;;;;5114791;28;20182;-40
2021/05/12 02:44:54;;;;;;;0.73;0.73;;;;;;;;;;5116193;28;20169;-40
2021/05/12 02:47:20;;;;;;;0.70;0.70;;;;;;;;;;5115954;28;20448;-41
2021/05/12 02:49:46;;;;;;;0.95;0.70;;;;;;;;;;5115671;28;20508;-40
2021/05/12 02:52:12;;;;;;;0.70;0.70;;;;;;;;;;5107829;28;20239;-41
2021/05/12 02:54:38;;;;;;;0.63;0.63;;;;;;;;;;5111572;28;20181;-40
2021/05/12 02:57:05;;;;;;;0.50;0.50;;;;;;;;;;5115503;28;20472;-40
2021/05/12 02:59:31;;;;;;;0.63;0.60;;;;;;;;;;5115187;28;20193;-41
2021/05/12 03:01:57;;;;;;;0.85;0.85;;;;;;;;;;5113603;28;20189;-41
2021/05/12 03:04:23;;;;;;;0.38;0.38;;;;;;;;;;5115644;28;20217;-40
2021/05/12 03:06:49;;;;;;;0.40;0.40;;;;;;;;;;5116000;28;20247;-40
2021/05/12 03:09:15;;;;;;;0.40;0.40;;;;;;;;;;5114824;28;20544;-40
2021/05/12 03:11:42;;;;;;;0.73;0.60;;;;;;;;;;5113710;28;20181;-40
2021/05/12 03:14:09;;;;;;;0.50;0.50;;;;;;;;;;5112791;28;20181;-40
2021/05/12 03:16:36;;;;;;;0.80;0.65;;;;;;;;;;5098162;28;20477;-40
2021/05/12 03:19:03;;;;;;;0.50;0.50;;;;;;;;;;5094937;28;20182;-40
2021/05/12 03:21:31;;;;;;;0.70;0.70;;;;;;;;;;5099037;28;20185;-40
2021/05/12 03:23:57;;;;;;;0.68;0.40;;;;;;;;;;5109451;28;20256;-40
2021/05/12 03:26:23;;;;;;;0.50;0.50;;;;;;;;;;5115066;28;20485;-40
2021/05/12 03:28:49;;;;;;;0.70;0.60;;;;;;;;;;5115539;28;20180;-40
2021/05/12 03:31:15;;;;;;;0.40;0.40;;;;;;;;;;5113365;28;20173;-40
2021/05/12 03:33:42;;;;;;;0.70;0.70;;;;;;;;;;5097345;28;20576;-40
2021/05/12 03:36:09;;;;;;;0.70;0.65;;;;;;;;;;5114806;28;20173;-40
2021/05/12 03:38:35;;;;;;;0.50;0.50;;;;;;;;;;5115213;28;20261;-40
2021/05/12 03:41:01;;;;;;;0.50;0.50;;;;;;;;;;5114383;28;20197;-40
2021/05/12 03:43:27;;;;;;;0.40;0.40;;;;;;;;;;5113802;28;20249;-40
2021/05/12 03:45:53;;;;;;;0.50;0.50;;;;;;;;;;5115199;28;20478;-40
2021/05/12 03:48:19;;;;;;;0.47;0.47;;;;;;;;;;5114700;28;20185;-40
2021/05/12 03:50:45;;;;;;;0.47;0.47;;;;;;;;;;5114731;28;20180;-41
2021/05/12 03:53:11;;;;;;;0.75;0.50;;;;;;;;;;5098030;28;20182;-41
2021/05/12 03:55:38;;;;;;;0.45;0.45;;;;;;;;;;5099159;28;20172;-41
2021/05/12 03:58:05;;;;;;;0.40;0.40;;;;;;;;;;5114699;28;20218;-40
2021/05/12 04:00:31;;;;;;;0.52;0.52;;;;;;;;;;5113700;28;20217;-40
2021/05/12 04:02:57;;;;;;;0.50;0.50;;;;;;;;;;5114759;28;20216;-40
2021/05/12 04:05:23;;;;;;;0.38;0.38;;;;;;;;;;5114964;28;20535;-40
2021/05/12 04:07:50;;;;;;;0.40;0.30;;;;;;;;;;5115150;28;20298;-40
2021/05/12 04:10:16;;;;;;;0.50;0.30;;;;;;;;;;5114256;28;20613;-41
2021/05/12 04:12:43;;;;;;;0.50;0.50;;;;;;;;;;5113835;28;20188;-40
2021/05/12 04:15:10;;;;;;;0.63;0.50;;;;;;;;;;5093564;28;20319;-40
2021/05/12 04:17:36;;;;;;;0.17;0.17;;;;;;;;;;5094462;28;20257;-41
2021/05/12 04:20:04;;;;;;;0.40;0.40;;;;;;;;;;5104691;28;20209;-40
2021/05/12 04:22:30;;;;;;;0.50;0.50;;;;;;;;;;5106335;28;20185;-40
2021/05/12 04:24:56;;;;;;;0.30;0.30;;;;;;;;;;5118752;28;20176;-40
2021/05/12 04:27:22;;;;;;;0.40;0.40;;;;;;;;;;5119082;28;20203;-40
2021/05/12 04:29:48;;;;;;;0.40;0.40;;;;;;;;;;5118099;28;20192;-40
2021/05/12 04:32:14;;;;;;;0.40;0.40;;;;;;;;;;5117993;28;20209;-40
2021/05/12 04:34:40;;;;;;;0.40;0.40;;;;;;;;;;5106947;28;20203;-40
2021/05/12 04:37:06;;;;;;;0.40;0.38;;;;;;;;;;5118449;28;20177;-40
2021/05/12 04:39:32;;;;;;;0.80;0.40;;;;;;;;;;5118503;28;20220;-40
2021/05/12 04:41:58;;;;;;;0.35;0.35;;;;;;;;;;5117107;28;20491;-40
2021/05/12 04:44:24;;;;;;;0.35;0.30;;;;;;;;;;5118287;28;20177;-40
2021/05/12 04:46:50;;;;;;;0.30;0.30;;;;;;;;;;5118673;28;20180;-40
2021/05/12 04:49:17;;;;;;;0.57;0.40;;;;;;;;;;5118442;28;20192;-40
2021/05/12 04:51:43;;;;;;;0.40;0.40;;;;;;;;;;5117288;28;20185;-40
2021/05/12 04:54:12;;;;;;;1.08;0.40;;;;;;;;;;5118487;28;20230;-40
2021/05/12 04:56:38;;;;;;;1.92;0.35;;;;;;;;;;5118239;28;20222;-40
2021/05/12 04:59:04;;;;;;;0.55;0.35;;;;;;;;;;5117803;28;20177;-40
2021/05/12 05:01:30;;;;;;;1.05;0.40;;;;;;;;;;5117146;28;20204;-40
2021/05/12 05:03:58;;;;;;;1.75;0.40;;;;;;;;;;5118102;28;20221;-40
2021/05/12 05:06:24;;;;;;;1.90;0.47;;;;;;;;;;5118239;28;20540;-40
2021/05/12 05:08:51;;;;;;;0.40;0.40;;;;;;;;;;5117904;28;20181;-40
2021/05/12 05:11:17;;;;;;;0.60;0.50;;;;;;;;;;5111617;28;20283;-40
2021/05/12 05:13:43;;;;;;;0.45;0.45;;;;;;;;;;5117628;28;20253;-40
2021/05/12 05:16:09;;;;;;;0.70;0.38;;;;;;;;;;5117504;28;20180;-40
2021/05/12 05:18:35;;;;;;;0.52;0.40;;;;;;;;;;5117806;28;20548;-41
2021/05/12 05:21:04;;;;;;;0.80;0.40;;;;;;;;;;5107026;28;20209;-40
2021/05/12 05:23:30;;;;;;;0.68;0.50;;;;;;;;;;5109618;28;20174;-40
2021/05/12 05:25:56;;;;;;;0.60;0.43;;;;;;;;;;5117524;28;20253;-40
2021/05/12 05:28:22;;;;;;;0.32;0.32;;;;;;;;;;5115689;28;20184;-40
2021/05/12 05:30:48;;;;;;;0.73;0.50;;;;;;;;;;5106793;28;20186;-40
2021/05/12 05:33:14;;;;;;;0.30;0.30;;;;;;;;;;5117460;28;20192;-40
2021/05/12 05:35:40;;;;;;;0.30;0.30;;;;;;;;;;5115755;28;20206;-40
2021/05/12 05:38:06;;;;;;;0.65;0.40;;;;;;;;;;5117823;28;20174;-41
2021/05/12 05:40:32;;;;;;;0.20;0.20;;;;;;;;;;5098444;28;20202;-40
2021/05/12 05:43:01;;;;;;;0.40;0.40;;;;;;;;;;5116052;28;20196;-40
2021/05/12 05:45:27;;;;;;;0.57;0.40;;;;;;;;;;5117664;28;20229;-40
2021/05/12 05:47:53;;;;;;;0.40;0.40;;;;;;;;;;5117317;28;20510;-40
2021/05/12 05:50:19;;;;;;;0.57;0.40;;;;;;;;;;5109065;28;20177;-40
2021/05/12 05:52:45;;;;;;;0.52;0.32;;;;;;;;;;5098938;28;20200;-40
2021/05/12 05:55:11;;;;;;;0.28;0.28;;;;;;;;;;5117155;28;20551;-40
2021/05/12 05:57:38;;;;;;;0.68;0.50;;;;;;;;;;5111018;28;20234;-40
2021/05/12 06:00:05;;;;;;;2.67;0.43;;;;;;;;;;5104439;28;20288;-40
2021/05/12 06:02:31;;;;;;;0.68;0.57;;;;;;;;;;5115814;28;20204;-40
2021/05/12 06:04:56;;;;;;;2.30;0.90;;;;;;;;;;5116704;28;20430;-40
2021/05/12 06:07:22;;;;;;;2.30;0.77;;;;;;;;;;5116993;28;20165;-40
2021/05/12 06:09:49;;;;;;;5.63;1.80;;;;;;;;;;5116788;28;20198;-40
2021/05/12 06:12:15;;;;;;;3.70;1.60;;;;;;;;;;5116504;28;20166;-40
2021/05/12 06:14:41;;;;;;;8.27;1.30;;;;;;;;;;5115577;28;20449;-40
2021/05/12 06:17:07;;;;;;;6.47;1.60;;;;;;;;;;5114978;28;20494;-40
2021/05/12 06:19:33;;;;;;;3.22;1.55;;;;;;;;;;5112699;28;20571;-40
2021/05/12 06:21:59;;;;;;;2.28;1.60;;;;;;;;;;5115733;28;20571;-40
2021/05/12 06:24:25;;;;;;;2.10;1.30;;;;;;;;;;5116117;28;20173;-40
2021/05/12 06:26:52;;;;;;;3.20;1.42;;;;;;;;;;5111628;28;20528;-40
2021/05/12 06:29:18;;;;;;;1.63;1.10;;;;;;;;;;5108620;28;20189;-40
2021/05/12 06:31:44;;;;;;;1.70;1.60;;;;;;;;;;5113845;28;20178;-40
2021/05/12 06:34:10;;;;;;;2.20;1.35;;;;;;;;;;5112551;28;20737;-40
2021/05/12 06:36:36;;;;;;;2.65;1.30;;;;;;;;;;5105757;28;20205;-40
2021/05/12 06:39:03;;;;;;;2.08;1.38;;;;;;;;;;5114027;28;20189;-41
2021/05/12 06:41:31;;;;;;;5.70;1.17;;;;;;;;;;5113845;28;20181;-40
2021/05/12 06:43:57;;;;;;;1.10;1.00;;;;;;;;;;5079565;28;20215;-41
2021/05/12 06:46:24;;;;;;;5.18;1.10;;;;;;;;;;5100560;28;20185;-41
2021/05/12 06:48:51;;;;;;;3.42;1.17;;;;;;;;;;5115980;28;20169;-41
2021/05/12 06:51:17;;;;;;;1.13;0.95;;;;;;;;;;5098252;28;20464;-41
2021/05/12 06:53:43;;;;;;;4.28;1.27;;;;;;;;;;5096190;28;20568;-41
2021/05/12 06:56:09;;;;;;;2.92;1.30;;;;;;;;;;5095769;28;20200;-41
2021/05/12 06:58:35;;;;;;;0.82;0.80;;;;;;;;;;5100933;28;20189;-41
2021/05/12 07:01:02;;;;;;;3.05;1.08;;;;;;;;;;5115491;28;20642;-41
2021/05/12 07:03:28;;;;;;;1.48;0.95;;;;;;;;;;5115478;28;20184;-41
2021/05/12 07:05:54;;;;;;;2.92;1.30;;;;;;;;;;5115810;28;20169;-41
2021/05/12 07:08:23;;;;;;;1.33;1.10;;;;;;;;;;5115817;28;20656;-41
2021/05/12 07:10:50;;;;;;;2.65;1.08;;;;;;;;;;5114241;28;20180;-41
2021/05/12 07:13:16;;;;;;;0.93;0.93;;;;;;;;;;5095421;28;20262;-41
2021/05/12 07:15:42;;;;;;;0.75;0.75;;;;;;;;;;5095422;28;20180;-41
2021/05/12 07:18:08;;;;;;;1.50;1.10;;;;;;;;;;5095211;28;20170;-41
2021/05/12 07:20:34;;;;;;;2.53;1.08;;;;;;;;;;5094333;28;20645;-41
2021/05/12 07:23:04;;;;;;;1.30;1.20;;;;;;;;;;5113317;28;20260;-41
2021/05/12 07:25:30;;;;;;;2.75;1.48;;;;;;;;;;5114908;28;20260;-41
2021/05/12 07:27:56;;;;;;;1.90;1.45;;;;;;;;;;5114945;28;20177;-41
2021/05/12 07:30:22;;;;;;;1.25;1.20;;;;;;;;;;5104389;28;20182;-41
2021/05/12 07:32:49;;;;;;;1.80;1.10;;;;;;;;;;5113168;28;20201;-41
2021/05/12 07:35:15;;;;;;;1.40;1.30;;;;;;;;;;5114752;28;20437;-40
2021/05/12 07:37:41;;;;;;;1.92;1.40;;;;;;;;;;5115517;28;20169;-40
2021/05/12 07:40:08;;;;;;;2.00;1.90;;;;;;;;;;5114672;28;20518;-41
2021/05/12 07:42:35;;;;;;;3.30;1.58;;;;;;;;;;5097735;28;20188;-41
2021/05/12 07:45:01;;;;;;;1.38;1.30;;;;;;;;;;5098508;28;20260;-41
2021/05/12 07:47:27;;;;;;;1.98;1.38;;;;;;;;;;5114912;28;20242;-41
2021/05/12 07:49:53;;;;;;;1.90;1.48;;;;;;;;;;5098670;28;20446;-40
2021/05/12 07:52:19;;;;;;;1.20;1.20;;;;;;;;;;5109302;28;20613;-41
2021/05/12 07:54:48;;;;;;;1.70;1.60;;;;;;;;;;5099276;28;20556;-41
2021/05/12 07:57:14;;;;;;;2.00;1.90;;;;;;;;;;5106205;28;20606;-41
2021/05/12 07:59:40;;;;;;;1.77;1.67;;;;;;;;;;5113739;28;20196;-41
2021/05/12 08:02:07;;;;;;;1.90;1.80;;;;;;;;;;5113737;28;20540;-41
2021/05/12 08:04:33;;;;;;;2.10;2.00;;;;;;;;;;5114805;28;20169;-41
2021/05/12 08:07:00;;;;;;;3.47;2.30;;;;;;;;;;5114908;28;20183;-41
2021/05/12 08:09:26;;;;;;;1.73;1.63;;;;;;;;;;5114347;28;20586;-41
2021/05/12 08:11:53;;;;;;;2.03;1.73;;;;;;;;;;5114118;28;20195;-41
2021/05/12 08:14:19;;;;;;;1.60;1.33;;;;;;;;;;5097234;28;20222;-41
2021/05/12 08:16:45;;;;;;;1.60;1.50;;;;;;;;;;5113863;28;20230;-41
2021/05/12 08:19:15;;;;;;;1.55;1.45;;;;;;;;;;5101530;28;20177;-41
2021/05/12 08:21:41;;;;;;;1.50;1.40;;;;;;;;;;5093038;28;20182;-41
2021/05/12 08:24:07;;;;;;;1.92;1.83;;;;;;;;;;5097045;28;20261;-40
2021/05/12 08:26:33;;;;;;;1.58;1.48;;;;;;;;;;5095136;28;20189;-41
2021/05/12 08:29:00;;;;;;;1.75;1.65;;;;;;;;;;5099131;28;20181;-41
2021/05/12 08:31:27;;;;;;;1.90;1.80;;;;;;;;;;5093724;28;20169;-41
2021/05/12 08:33:53;;;;;;;1.50;1.40;;;;;;;;;;5109529;28;20226;-41
2021/05/12 08:36:20;;;;;;;2.05;1.85;;;;;;;;;;5113878;28;20251;-41
2021/05/12 08:38:46;;;;;;;2.20;2.00;;;;;;;;;;5107398;28;20681;-41
2021/05/12 08:41:16;;;;;;;2.60;1.58;;;;;;;;;;5113268;28;20211;-41
2021/05/12 08:43:43;;;;;;;1.70;1.40;;;;;;;;;;5113912;28;20454;-41
2021/05/12 08:46:12;;;;;;;6.53;1.70;;;;;;;;;;5114236;28;20177;-41
2021/05/12 08:48:40;;;;;;;2.55;1.58;;;;;;;;;;5113560;28;20272;-41
2021/05/12 08:51:06;;;;;;;1.55;1.45;;;;;;;;;;5113724;28;20178;-41
2021/05/12 08:53:33;;;;;;;1.63;1.52;;;;;;;;;;5114172;28;20276;-41
2021/05/12 08:56:00;;;;;;;1.50;1.30;;;;;;;;;;5114467;28;20184;-41
2021/05/12 08:58:26;;;;;;;1.63;1.40;;;;;;;;;;5113061;28;20259;-41
2021/05/12 09:00:53;;;;;;;1.27;1.25;;;;;;;;;;5109197;28;20208;-41
2021/05/12 09:03:19;;;;;;;2.15;0.98;;;;;;;;;;5113747;28;20260;-41
2021/05/12 09:05:45;;;;;;;1.25;0.80;;;;;;;;;;5113806;28;20233;-41
2021/05/12 09:08:11;;;;;;;2.40;1.10;;;;;;;;;;5101203;28;20265;-41
2021/05/12 09:10:38;;;;;;;1.10;1.00;;;;;;;;;;5117046;28;20230;-41
2021/05/12 09:13:04;;;;;;;1.40;1.20;;;;;;;;;;5117772;28;20185;-41
2021/05/12 09:15:31;;;;;;;2.60;1.30;;;;;;;;;;5109317;28;20188;-41
2021/05/12 09:18:04;;;;;;;2.00;1.30;;;;;;;;;;5115569;28;20196;-41
2021/05/12 09:20:36;;;;;;;1.30;1.08;;;;;;;;;;5116662;28;20201;-41
2021/05/12 09:23:02;;;;;;;1.00;1.00;;;;;;;;;;5117303;28;20176;-41
2021/05/12 09:25:29;;;;;;;1.20;1.20;;;;;;;;;;5096783;28;20169;-41
2021/05/12 09:28:08;;;;;;;1.10;1.00;;;;;;;;;;5117749;28;20575;-41
2021/05/12 09:30:38;;;;;;;1.55;1.00;;;;;;;;;;5115650;28;20424;-41
2021/05/12 09:33:05;;;;;;;0.80;0.80;;;;;;;;;;5117485;28;20184;-41
2021/05/12 09:35:31;;;;;;;0.90;0.75;;;;;;;;;;5116741;28;20265;-41
2021/05/12 09:37:57;;;;;;;0.80;0.80;;;;;;;;;;5115152;28;20203;-41
2021/05/12 09:40:23;;;;;;;1.15;0.90;;;;;;;;;;5112423;28;20212;-41
2021/05/12 09:43:00;;;;;;;0.70;0.70;;;;;;;;;;5110863;28;20209;-41
2021/05/12 09:45:27;;;;;;;0.70;0.70;;;;;;;;;;5116328;28;20264;-41
2021/05/12 09:47:57;;;;;;;0.85;0.65;;;;;;;;;;5116375;28;20181;-41
2021/05/12 09:50:32;;;;;;;1.15;0.70;;;;;;;;;;5116875;28;20567;-41
2021/05/12 09:53:00;;;;;;;1.67;1.15;;;;;;;;;;5117018;28;20241;-41
2021/05/12 09:55:36;;;;;;;2.40;1.10;;;;;;;;;;5116463;28;20544;-41
2021/05/12 09:58:06;;;;;;;2.28;0.90;;;;;;;;;;5116863;28;20193;-40
2021/05/12 10:00:38;;;;;;;0.95;0.80;;;;;;;;;;5115978;28;20232;-41
2021/05/12 10:03:05;;;;;;;5.45;0.88;;;;;;;;;;5116236;28;20278;-41
2021/05/12 10:05:50;;;;;;;1.73;0.77;;;;;;;;;;5109724;28;20173;-41
2021/05/12 10:08:20;;;;;;;0.95;0.93;;;;;;;;;;5112316;28;20177;-41
2021/05/12 10:10:46;;;;;;;2.15;0.60;;;;;;;;;;5116534;28;20177;-41
2021/05/12 10:13:12;;;;;;;0.75;0.65;;;;;;;;;;5115440;28;20181;-41
2021/05/12 10:15:38;;;;;;;0.77;0.77;;;;;;;;;;5106907;28;20195;-41
2021/05/12 10:18:07;;;;;;;2.00;0.77;;;;;;;;;;5116975;28;20242;-41
2021/05/12 10:20:34;;;;;;;0.68;0.68;;;;;;;;;;5114671;28;20443;-41
2021/05/12 10:23:00;;;;;;;1.45;0.75;;;;;;;;;;5116153;28;20188;-41
2021/05/12 10:25:26;;;;;;;1.42;0.50;;;;;;;;;;5115173;28;20555;-41
2021/05/12 10:27:53;;;;;;;0.52;0.50;;;;;;;;;;5115779;28;20230;-41
2021/05/12 10:30:19;;;;;;;0.98;0.70;;;;;;;;;;5115977;28;20177;-41
2021/05/12 10:32:57;;;;;;;2.97;0.75;;;;;;;;;;5097872;28;20187;-41
2021/05/12 10:35:44;;;;;;;2.38;0.60;;;;;;;;;;5105517;28;20255;-41
2021/05/12 10:38:28;;;;;;;1.05;0.57;;;;;;;;;;5116039;28;20185;-41
2021/05/12 10:40:54;;;;;;;0.68;0.68;;;;;;;;;;5115836;28;20196;-41
2021/05/12 10:43:28;;;;;;;1.05;0.52;;;;;;;;;;5106811;28;20687;-41
2021/05/12 10:46:16;;;;;;;0.50;0.50;;;;;;;;;;5115809;28;20176;-41
2021/05/12 10:48:47;;;;;;;0.98;0.85;;;;;;;;;;5116327;28;20244;-41
2021/05/12 10:51:29;;;;;;;1.98;0.70;;;;;;;;;;5114910;28;20195;-41
2021/05/12 10:53:57;;;;;;;1.83;0.82;;;;;;;;;;5108217;28;20227;-41
2021/05/12 10:56:33;;;;;;;0.77;0.77;;;;;;;;;;5113211;28;20185;-41
2021/05/12 10:59:00;;;;;;;1.85;1.00;;;;;;;;;;5095692;28;20170;-41
2021/05/12 11:01:27;;;;;;;1.90;0.80;;;;;;;;;;5094685;28;20221;-41
2021/05/12 11:03:53;;;;;;;1.13;0.98;;;;;;;;;;5102609;28;20438;-41
2021/05/12 11:06:39;;;;;;;1.33;1.05;;;;;;;;;;5113625;28;20177;-41
2021/05/12 11:09:18;;;;;;;1.05;0.70;;;;;;;;;;5089651;28;20174;-41
2021/05/12 11:11:44;;;;;;;1.88;0.80;;;;;;;;;;5094530;28;20162;-41
2021/05/12 11:14:20;;;;;;;1.80;1.00;;;;;;;;;;5112509;28;20169;-41
2021/05/12 11:17:01;;;;;;;0.70;0.65;;;;;;;;;;5115344;28;20173;-41
2021/05/12 11:19:50;;;;;;;1.08;0.70;;;;;;;;;;5115585;28;20232;-41
2021/05/12 11:22:28;;;;;;;0.70;0.55;;;;;;;;;;5112367;28;20241;-41
2021/05/12 11:25:00;;;;;;;0.70;0.60;;;;;;;;;;5103667;28;20259;-41
2021/05/12 11:27:45;;;;;;;2.25;0.70;;;;;;;;;;5115552;28;20172;-41
2021/05/12 11:33:01;;;;;;;0.82;0.40;;;;;;;;;;5114556;28;20251;-41
2021/05/12 11:35:27;;;;;;;0.50;0.50;;;;;;;;;;5103580;28;20191;-41
2021/05/12 11:37:53;;;;;;;0.45;0.45;;;;;;;;;;5114888;28;20185;-41
2021/05/12 11:40:19;;;;;;;0.45;0.45;;;;;;;;;;5115252;28;20200;-41
2021/05/12 11:42:45;;;;;;;0.65;0.55;;;;;;;;;;5114747;28;20604;-41
2021/05/12 11:45:13;;;;;;;0.43;0.43;;;;;;;;;;5112211;28;20184;-41
2021/05/12 11:47:41;;;;;;;0.40;0.40;;;;;;;;;;5114416;28;20157;-41
2021/05/12 11:50:20;;;;;;;0.30;0.30;;;;;;;;;;5114175;28;20169;-41
2021/05/12 11:52:47;;;;;;;0.40;0.40;;;;;;;;;;5114358;28;20184;-41
2021/05/12 11:55:13;;;;;;;0.52;0.40;;;;;;;;;;5105375;28;20192;-41
2021/05/12 11:57:39;;;;;;;1.58;0.50;;;;;;;;;;5114982;28;20193;-41
2021/05/12 12:00:07;;;;;;;3.65;0.50;;;;;;;;;;5114807;28;20433;-41
2021/05/12 12:02:34;;;;;;;0.73;0.30;;;;;;;;;;5114548;28;20420;-41
2021/05/12 12:05:03;;;;;;;0.30;0.30;;;;;;;;;;5113828;28;20172;-41
2021/05/12 12:07:35;;;;;;;10.52;2.70;;;;;;;;;;5107377;28;20219;-41
2021/05/12 12:10:01;;;;;;;22.13;5.45;;;;;;;;;;5111081;28;20177;-41
2021/05/12 12:12:28;;;;;;;37.45;8.68;;;;;;;;;;5111327;28;20181;-41
2021/05/12 12:15:04;;;;;;;48.60;10.45;;;;;;;;;;5098705;28;20183;-41
2021/05/12 12:17:30;;;;;;;35.60;10.00;;;;;;;;;;5114523;28;20187;-41
2021/05/12 12:20:22;;;;;;;33.95;8.50;;;;;;;;;;5114631;28;20189;-41
2021/05/12 12:22:49;;;;;;;29.33;8.30;;;;;;;;;;5109479;28;20224;-41
2021/05/12 12:25:16;;;;;;;26.98;7.25;;;;;;;;;;5114058;28;20177;-41
2021/05/12 12:27:43;;;;;;;23.40;6.88;;;;;;;;;;5115040;28;20157;-41
2021/05/12 12:30:10;;;;;;;20.70;7.45;;;;;;;;;;5114883;28;20189;-41
2021/05/12 12:32:36;;;;;;;22.00;7.65;;;;;;;;;;5113558;28;20260;-41
2021/05/12 12:35:02;;;;;;;27.77;8.20;;;;;;;;;;5114337;28;20177;-41
2021/05/12 12:37:31;;;;;;;29.02;7.35;;;;;;;;;;5114352;28;20181;-41
2021/05/12 12:40:24;;;;;;;17.65;6.38;;;;;;;;;;5112921;28;20592;-41
2021/05/12 12:42:51;;;;;;;23.48;6.65;;;;;;;;;;5103801;28;20189;-41
2021/05/12 12:45:17;;;;;;;21.52;6.60;;;;;;;;;;5085746;28;20169;-41
2021/05/12 12:47:50;;;;;;;27.55;7.18;;;;;;;;;;5118216;28;20208;-41
2021/05/12 12:50:17;;;;;;;21.52;6.75;;;;;;;;;;5118490;28;20576;-41
2021/05/12 12:52:44;;;;;;;26.27;6.80;;;;;;;;;;5110891;28;20461;-41
2021/05/12 12:55:13;;;;;;;21.00;6.43;;;;;;;;;;5097749;28;20205;-41
2021/05/12 12:57:41;;;;;;;16.20;6.50;;;;;;;;;;5118735;28;20284;-41
2021/05/12 13:00:20;;;;;;;19.83;6.68;;;;;;;;;;5115418;28;20201;-41
2021/05/12 13:03:00;;;;;;;21.27;6.72;;;;;;;;;;5110711;28;20449;-41
2021/05/12 13:05:30;;;;;;;16.00;6.10;;;;;;;;;;5108386;28;20232;-41
2021/05/12 13:08:12;;;;;;;19.48;5.57;;;;;;;;;;5117920;28;20181;-41
2021/05/12 13:10:39;;;;;;;15.18;5.00;;;;;;;;;;5099435;28;20180;-41
2021/05/12 13:13:05;;;;;;;17.05;5.80;;;;;;;;;;5117204;28;20207;-41
2021/05/12 13:15:33;;;;;;;19.63;6.22;;;;;;;;;;5099170;28;20188;-41
2021/05/12 13:18:01;;;;;;;17.33;5.82;;;;;;;;;;5118285;28;20161;-41
2021/05/12 13:20:28;;;;;;;19.77;5.45;;;;;;;;;;5116363;28;20280;-41
2021/05/12 13:23:11;;;;;;;14.55;5.00;;;;;;;;;;5115211;28;20177;-41
2021/05/12 13:25:45;;;;;;;13.73;5.20;;;;;;;;;;5108376;28;20617;-41
2021/05/12 13:28:11;;;;;;;11.65;5.20;;;;;;;;;;5117306;28;20207;-41
2021/05/12 13:30:37;;;;;;;17.23;6.85;;;;;;;;;;5115903;28;20177;-41
2021/05/12 13:33:03;;;;;;;21.38;7.80;;;;;;;;;;5103404;28;20238;-41
2021/05/12 13:35:29;;;;;;;18.73;7.53;;;;;;;;;;5117137;28;20177;-41
2021/05/12 13:37:55;;;;;;;14.38;6.38;;;;;;;;;;5116718;28;20181;-41
2021/05/12 13:40:21;;;;;;;15.75;6.20;;;;;;;;;;5117171;28;20603;-41
2021/05/12 13:42:47;;;;;;;13.88;5.55;;;;;;;;;;5112628;28;20253;-41
2021/05/12 13:45:15;;;;;;;12.27;5.03;;;;;;;;;;5117281;28;20607;-41
2021/05/12 13:47:41;;;;;;;12.07;5.20;;;;;;;;;;5117323;28;20205;-41
2021/05/12 13:50:09;;;;;;;10.30;4.85;;;;;;;;;;5110465;28;20448;-41
2021/05/12 13:53:22;;;;;;;9.30;4.88;;;;;;;;;;5115411;28;20181;-41
2021/05/12 13:58:24;;;;;;;6.32;3.92;;;;;;;;;;5117281;28;20436;-41
2021/05/12 14:01:46;;;;;;;3.83;3.15;;;;;;;;;;5110906;28;20603;-41
2021/05/12 14:03:32;;;;;;;4.28;3.08;;;;;;;;;;5107777;28;20185;-41
2021/05/12 14:05:58;;;;;;;5.45;3.10;;;;;;;;;;5116395;28;20189;-41
2021/05/12 14:08:24;;;;;;;5.07;3.38;;;;;;;;;;5116730;28;20173;-41
2021/05/12 14:10:51;;;;;;;4.55;3.10;;;;;;;;;;5115794;28;20563;-42
2021/05/12 14:13:21;;;;;;;3.17;2.72;;;;;;;;;;5104715;28;20189;-41
2021/05/12 14:18:34;;;;;;;3.40;2.75;;;;;;;;;;5116766;28;20179;-41
2021/05/12 14:21:00;;;;;;;3.70;3.13;;;;;;;;;;5105219;28;20577;-41
2021/05/12 14:23:26;;;;;;;3.33;2.78;;;;;;;;;;5102511;28;20185;-41
2021/05/12 14:25:52;;;;;;;5.68;2.70;;;;;;;;;;5109588;28;20811;-41
2021/05/12 14:28:25;;;;;;;5.22;3.03;;;;;;;;;;5116275;28;20192;-41
2021/05/12 14:30:52;;;;;;;2.50;2.30;;;;;;;;;;5115281;28;20177;-41
2021/05/12 14:33:18;;;;;;;2.58;2.38;;;;;;;;;;5116024;28;20184;-41
2021/05/12 14:35:44;;;;;;;2.95;2.63;;;;;;;;;;5115395;28;20177;-41
2021/05/12 14:38:10;;;;;;;2.47;2.28;;;;;;;;;;5114719;28;20188;-41
2021/05/12 14:40:39;;;;;;;2.75;2.50;;;;;;;;;;5084600;28;20214;-41
2021/05/12 14:43:05;;;;;;;2.40;2.20;;;;;;;;;;5104038;28;20199;-41
2021/05/12 14:45:32;;;;;;;3.60;2.40;;;;;;;;;;5098581;28;20438;-41
2021/05/12 14:48:09;;;;;;;2.20;1.98;;;;;;;;;;5116347;28;20256;-41
2021/05/12 14:50:35;;;;;;;4.18;2.13;;;;;;;;;;5113529;28;20189;-41
2021/05/12 14:53:27;;;;;;;4.05;2.55;;;;;;;;;;5115782;28;20268;-41